地図

経路データ

SID SEASON NUMBER BASIN SUBBASIN NAME ISO_TIME NATURE LAT LON WMO_WIND WMO_PRES WMO_AGENCY TRACK_TYPE DIST2LAND LANDFALL IFLAG USA_AGENCY USA_ATCF_ID USA_LAT USA_LON USA_RECORD USA_STATUS USA_WIND USA_PRES USA_SSHS USA_R34_NE USA_R34_SE USA_R34_SW USA_R34_NW USA_R50_NE USA_R50_SE USA_R50_SW USA_R50_NW USA_R64_NE USA_R64_SE USA_R64_SW USA_R64_NW USA_POCI USA_ROCI USA_RMW USA_EYE TOKYO_LAT TOKYO_LON TOKYO_GRADE TOKYO_WIND TOKYO_PRES TOKYO_R50_DIR TOKYO_R50_LONG TOKYO_R50_SHORT TOKYO_R30_DIR TOKYO_R30_LONG TOKYO_R30_SHORT TOKYO_LAND CMA_LAT CMA_LON CMA_CAT CMA_WIND CMA_PRES HKO_LAT HKO_LON HKO_CAT HKO_WIND HKO_PRES NEWDELHI_LAT NEWDELHI_LON NEWDELHI_GRADE NEWDELHI_WIND NEWDELHI_PRES NEWDELHI_CI NEWDELHI_DP NEWDELHI_POCI REUNION_LAT REUNION_LON REUNION_TYPE REUNION_WIND REUNION_PRES REUNION_TNUM REUNION_CI REUNION_RMW REUNION_R34_NE REUNION_R34_SE REUNION_R34_SW REUNION_R34_NW REUNION_R50_NE REUNION_R50_SE REUNION_R50_SW REUNION_R50_NW REUNION_R64_NE REUNION_R64_SE REUNION_R64_SW REUNION_R64_NW BOM_LAT BOM_LON BOM_TYPE BOM_WIND BOM_PRES BOM_TNUM BOM_CI BOM_RMW BOM_R34_NE BOM_R34_SE BOM_R34_SW BOM_R34_NW BOM_R50_NE BOM_R50_SE BOM_R50_SW BOM_R50_NW BOM_R64_NE BOM_R64_SE BOM_R64_SW BOM_R64_NW BOM_ROCI BOM_POCI BOM_EYE BOM_POS_METHOD BOM_PRES_METHOD NADI_LAT NADI_LON NADI_CAT NADI_WIND NADI_PRES WELLINGTON_LAT WELLINGTON_LON WELLINGTON_WIND WELLINGTON_PRES DS824_LAT DS824_LON DS824_STAGE DS824_WIND DS824_PRES TD9636_LAT TD9636_LON TD9636_STAGE TD9636_WIND TD9636_PRES TD9635_LAT TD9635_LON TD9635_WIND TD9635_PRES TD9635_ROCI NEUMANN_LAT NEUMANN_LON NEUMANN_CLASS NEUMANN_WIND NEUMANN_PRES MLC_LAT MLC_LON MLC_CLASS MLC_WIND MLC_PRES USA_GUST BOM_GUST BOM_GUST_PER REUNION_GUST REUNION_GUST_PER USA_SEAHGT USA_SEARAD_NE USA_SEARAD_SE USA_SEARAD_SW USA_SEARAD_NW STORM_SPEED STORM_DIR
1992191N12252 1992 49 EP MM ESTELLE 1992-07-09 00:00:00 TS 11.7000 -108.400 25 1008 hurdat_epa main 907 904 O_____________ hurdat_epa EP061992 11.7000 -108.400 TD 25 1008 -1 10 297
1992191N12252 1992 49 EP MM ESTELLE 1992-07-09 03:00:00 TS 11.9226 -108.840 main 914 912 P_____________ EP061992 11.9226 -108.840 TD 25 1007 -1 10 294
1992191N12252 1992 49 EP MM ESTELLE 1992-07-09 06:00:00 TS 12.1000 -109.300 25 1007 hurdat_epa main 929 929 O_____________ hurdat_epa EP061992 12.1000 -109.300 TD 25 1007 -1 10 287
1992191N12252 1992 49 EP MM ESTELLE 1992-07-09 09:00:00 TS 12.2074 -109.793 main 948 948 P_____________ EP061992 12.2074 -109.793 TD 27 1006 -1 10 282
1992191N12252 1992 49 EP MM ESTELLE 1992-07-09 12:00:00 TS 12.3000 -110.300 30 1006 hurdat_epa main 970 970 O_____________ hurdat_epa EP061992 12.3000 -110.300 TD 30 1006 -1 10 284
1992191N12252 1992 49 EP MM ESTELLE 1992-07-09 15:00:00 TS 12.4574 -110.792 main 986 986 P_____________ EP061992 12.4574 -110.792 TD 32 1005 -1 10 287
1992191N12252 1992 49 EP MM ESTELLE 1992-07-09 18:00:00 TS 12.6000 -111.300 35 1005 hurdat_epa main 1014 1014 O_____________ hurdat_epa EP061992 12.6000 -111.300 TS 35 1005 0 11 282
1992191N12252 1992 49 EP MM ESTELLE 1992-07-09 21:00:00 TS 12.6800 -111.850 main 1051 1051 P_____________ EP061992 12.6800 -111.850 TS 35 1004 0 11 275
1992191N12252 1992 49 EP MM ESTELLE 1992-07-10 00:00:00 TS 12.7000 -112.400 35 1003 hurdat_epa main 1089 1089 O_____________ hurdat_epa EP061992 12.7000 -112.400 TS 35 1003 0 10 270
1992191N12252 1992 49 EP MM ESTELLE 1992-07-10 03:00:00 TS 12.6799 -112.907 main 1127 1127 P_____________ EP061992 12.6799 -112.907 TS 37 1001 0 10 264
1992191N12252 1992 49 EP MM ESTELLE 1992-07-10 06:00:00 TS 12.6000 -113.400 40 1000 hurdat_epa main 1174 1174 O_____________ hurdat_epa EP061992 12.6000 -113.400 TS 40 1000 0 10 258
1992191N12252 1992 49 EP MM ESTELLE 1992-07-10 09:00:00 TS 12.4649 -113.908 main 1221 1221 P_____________ EP061992 12.4649 -113.908 TS 45 998 0 10 253
1992191N12252 1992 49 EP MM ESTELLE 1992-07-10 12:00:00 TS 12.3000 -114.400 50 997 hurdat_epa main 1274 1274 O_____________ hurdat_epa EP061992 12.3000 -114.400 TS 50 997 0 10 251
1992191N12252 1992 49 EP MM ESTELLE 1992-07-10 15:00:00 TS 12.1424 -114.850 main 1310 1310 P_____________ EP061992 12.1424 -114.850 TS 52 995 0 9 251
1992191N12252 1992 49 EP MM ESTELLE 1992-07-10 18:00:00 TS 12.0000 -115.300 55 994 hurdat_epa main 1342 1342 O_____________ hurdat_epa EP061992 12.0000 -115.300 TS 55 994 0 10 254
1992191N12252 1992 49 EP MM ESTELLE 1992-07-10 21:00:00 TS 11.8700 -115.800 main 1375 1375 P_____________ EP061992 11.8700 -115.800 TS 57 992 0 10 258
1992191N12252 1992 49 EP MM ESTELLE 1992-07-11 00:00:00 TS 11.8000 -116.300 60 991 hurdat_epa main 1409 1409 O_____________ hurdat_epa EP061992 11.8000 -116.300 TS 60 991 0 9 267
1992191N12252 1992 49 EP MM ESTELLE 1992-07-11 03:00:00 TS 11.8199 -116.757 main 1435 1435 P_____________ EP061992 11.8199 -116.757 TS 65 987 1 9 276
1992191N12252 1992 49 EP MM ESTELLE 1992-07-11 06:00:00 TS 11.9000 -117.200 70 984 hurdat_epa main 1447 1447 O_____________ hurdat_epa EP061992 11.9000 -117.200 HU 70 984 1 9 280
1992191N12252 1992 49 EP MM ESTELLE 1992-07-11 09:00:00 TS 11.9700 -117.658 main 1467 1467 P_____________ EP061992 11.9700 -117.658 HU 77 978 1 9 283
1992191N12252 1992 49 EP MM ESTELLE 1992-07-11 12:00:00 TS 12.1000 -118.100 85 973 hurdat_epa main 1481 1478 O_____________ hurdat_epa EP061992 12.1000 -118.100 HU 85 973 2 9 292
1992191N12252 1992 49 EP MM ESTELLE 1992-07-11 15:00:00 TS 12.3125 -118.522 main 1488 1483 P_____________ EP061992 12.3125 -118.523 HU 95 965 2 9 303
1992191N12252 1992 49 EP MM ESTELLE 1992-07-11 18:00:00 TS 12.6000 -118.900 105 957 hurdat_epa main 1487 1475 O_____________ hurdat_epa EP061992 12.6000 -118.900 HU 105 957 3 9 314
1992191N12252 1992 49 EP MM ESTELLE 1992-07-11 21:00:00 TS 12.9499 -119.208 main 1482 1469 P_____________ EP061992 12.9499 -119.208 HU 110 952 3 9 320
1992191N12252 1992 49 EP MM ESTELLE 1992-07-12 00:00:00 TS 13.3000 -119.500 115 948 hurdat_epa main 1469 1466 O_____________ hurdat_epa EP061992 13.3000 -119.500 HU 115 948 4 9 314
1992191N12252 1992 49 EP MM ESTELLE 1992-07-12 03:00:00 TS 13.5650 -119.858 main 1473 1472 P_____________ EP061992 13.5650 -119.858 HU 115 948 4 8 306
1992191N12252 1992 49 EP MM ESTELLE 1992-07-12 06:00:00 TS 13.8000 -120.200 115 948 hurdat_epa main 1480 1479 O_____________ hurdat_epa EP061992 13.8000 -120.200 HU 115 948 4 8 309
1992191N12252 1992 49 EP MM ESTELLE 1992-07-12 09:00:00 TS 14.0424 -120.465 main 1485 1470 P_____________ EP061992 14.0424 -120.465 HU 112 950 3 7 316
1992191N12252 1992 49 EP MM ESTELLE 1992-07-12 12:00:00 TS 14.3000 -120.700 110 953 hurdat_epa main 1470 1456 O_____________ hurdat_epa EP061992 14.3000 -120.700 HU 110 953 3 7 319
1992191N12252 1992 49 EP MM ESTELLE 1992-07-12 15:00:00 TS 14.6000 -120.965 main 1463 1450 P_____________ EP061992 14.6000 -120.965 HU 107 955 3 8 321
1992191N12252 1992 49 EP MM ESTELLE 1992-07-12 18:00:00 TS 14.9000 -121.200 105 957 hurdat_epa main 1450 1438 O_____________ hurdat_epa EP061992 14.9000 -121.200 HU 105 957 3 7 325
1992191N12252 1992 49 EP MM ESTELLE 1992-07-12 21:00:00 TS 15.1650 -121.373 main 1438 1429 P_____________ EP061992 15.1650 -121.373 HU 100 961 3 6 330
1992191N12252 1992 49 EP MM ESTELLE 1992-07-13 00:00:00 TS 15.4000 -121.500 95 966 hurdat_epa main 1429 1419 O_____________ hurdat_epa EP061992 15.4000 -121.500 HU 95 966 2 5 333
1992191N12252 1992 49 EP MM ESTELLE 1992-07-13 03:00:00 TS 15.6000 -121.600 main 1419 1410 P_____________ EP061992 15.6000 -121.600 HU 97 964 3 4 334
1992191N12252 1992 49 EP MM ESTELLE 1992-07-13 06:00:00 TS 15.8000 -121.700 100 962 hurdat_epa main 1410 1402 O_____________ hurdat_epa EP061992 15.8000 -121.700 HU 100 962 3 5 332
1992191N12252 1992 49 EP MM ESTELLE 1992-07-13 09:00:00 TS 16.0425 -121.842 main 1402 1393 P_____________ EP061992 16.0425 -121.842 HU 107 955 3 6 330
1992191N12252 1992 49 EP MM ESTELLE 1992-07-13 12:00:00 TS 16.3000 -122.000 115 948 hurdat_epa main 1393 1385 O_____________ hurdat_epa EP061992 16.3000 -122.000 HU 115 948 4 6 330
1992191N12252 1992 49 EP MM ESTELLE 1992-07-13 15:00:00 TS 16.5500 -122.150 main 1393 1377 P_____________ EP061992 16.5500 -122.150 HU 117 945 4 6 330
1992191N12252 1992 49 EP MM ESTELLE 1992-07-13 18:00:00 TS 16.8000 -122.300 120 943 hurdat_epa main 1378 1370 O_____________ hurdat_epa EP061992 16.8000 -122.300 HU 120 943 4 6 329
1992191N12252 1992 49 EP MM ESTELLE 1992-07-13 21:00:00 TS 17.0350 -122.450 main 1379 1364 P_____________ EP061992 17.0350 -122.450 HU 117 945 4 6 330
1992191N12252 1992 49 EP MM ESTELLE 1992-07-14 00:00:00 TS 17.3000 -122.600 115 948 hurdat_epa main 1365 1352 O_____________ hurdat_epa EP061992 17.3000 -122.600 HU 115 948 4 7 335
1992191N12252 1992 49 EP MM ESTELLE 1992-07-14 03:00:00 TS 17.6274 -122.735 main 1352 1340 P_____________ EP061992 17.6274 -122.735 HU 112 950 3 8 338
1992191N12252 1992 49 EP MM ESTELLE 1992-07-14 06:00:00 TS 18.0000 -122.900 110 953 hurdat_epa main 1342 1326 O_____________ hurdat_epa EP061992 18.0000 -122.900 HU 110 953 3 9 333
1992191N12252 1992 49 EP MM ESTELLE 1992-07-14 09:00:00 TS 18.3850 -123.135 main 1326 1312 P_____________ EP061992 18.3850 -123.135 HU 100 961 3 9 329
1992191N12252 1992 49 EP MM ESTELLE 1992-07-14 12:00:00 TS 18.8000 -123.400 90 970 hurdat_epa main 1312 1291 O_____________ hurdat_epa EP061992 18.8000 -123.400 HU 90 970 2 10 330
1992191N12252 1992 49 EP MM ESTELLE 1992-07-14 15:00:00 TS 19.2425 -123.658 main 1298 1271 P_____________ EP061992 19.2425 -123.658 HU 85 973 2 10 332
1992191N12252 1992 49 EP MM ESTELLE 1992-07-14 18:00:00 TS 19.7000 -123.900 80 977 hurdat_epa main 1271 1254 O_____________ hurdat_epa EP061992 19.7000 -123.900 HU 80 977 1 10 336
1992191N12252 1992 49 EP MM ESTELLE 1992-07-14 21:00:00 TS 20.1499 -124.093 main 1254 1231 P_____________ EP061992 20.1499 -124.093 HU 72 982 1 10 337
1992191N12252 1992 49 EP MM ESTELLE 1992-07-15 00:00:00 TS 20.6000 -124.300 65 987 hurdat_epa main 1231 1218 O_____________ hurdat_epa EP061992 20.6000 -124.300 HU 65 987 1 10 333
1992191N12252 1992 49 EP MM ESTELLE 1992-07-15 03:00:00 TS 21.0725 -124.592 main 1218 1213 P_____________ EP061992 21.0725 -124.592 HU 60 990 0 11 328
1992191N12252 1992 49 EP MM ESTELLE 1992-07-15 06:00:00 TS 21.5000 -124.900 55 994 hurdat_epa main 1215 1209 O_____________ hurdat_epa EP061992 21.5000 -124.900 TS 55 994 0 9 326
1992191N12252 1992 49 EP MM ESTELLE 1992-07-15 09:00:00 TS 21.8298 -125.143 main 1213 1213 P_____________ EP061992 21.8298 -125.143 TS 52 995 0 8 322
1992191N12252 1992 49 EP MM ESTELLE 1992-07-15 12:00:00 TS 22.1000 -125.400 50 997 hurdat_epa main 1219 1219 O_____________ hurdat_epa EP061992 22.1000 -125.400 TS 50 997 0 8 314
1992191N12252 1992 49 EP MM ESTELLE 1992-07-15 15:00:00 TS 22.3651 -125.743 main 1228 1228 P_____________ EP061992 22.3651 -125.743 TS 47 998 0 8 308
1992191N12252 1992 49 EP MM ESTELLE 1992-07-15 18:00:00 TS 22.6000 -126.100 45 1000 hurdat_epa main 1252 1252 O_____________ hurdat_epa EP061992 22.6000 -126.100 TS 45 1000 0 8 307
1992191N12252 1992 49 EP MM ESTELLE 1992-07-15 21:00:00 TS 22.8149 -126.400 main 1268 1268 P_____________ EP061992 22.8149 -126.400 TS 42 1001 0 7 306
1992191N12252 1992 49 EP MM ESTELLE 1992-07-16 00:00:00 TS 23.0000 -126.700 40 1003 hurdat_epa main 1285 1285 O_____________ hurdat_epa EP061992 23.0000 -126.700 TS 40 1003 0 7 301
1992191N12252 1992 49 EP MM ESTELLE 1992-07-16 03:00:00 TS 23.1650 -127.043 main 1303 1303 P_____________ EP061992 23.1650 -127.043 TS 37 1004 0 7 295
1992191N12252 1992 49 EP MM ESTELLE 1992-07-16 06:00:00 TS 23.3000 -127.400 35 1005 hurdat_epa main 1336 1336 O_____________ hurdat_epa EP061992 23.3000 -127.400 TS 35 1005 0 7 291
1992191N12252 1992 49 EP MM ESTELLE 1992-07-16 09:00:00 TS 23.4149 -127.750 main 1369 1369 P_____________ EP061992 23.4149 -127.750 TS 32 1006 -1 7 287
1992191N12252 1992 49 EP MM ESTELLE 1992-07-16 12:00:00 TS 23.5000 -128.100 30 1007 hurdat_epa main 1392 1392 O_____________ hurdat_epa EP061992 23.5000 -128.100 TD 30 1007 -1 7 284
1992191N12252 1992 49 EP MM ESTELLE 1992-07-16 15:00:00 TS 23.5724 -128.442 main 1417 1417 P_____________ EP061992 23.5724 -128.442 TD 30 1007 -1 6 279
1992191N12252 1992 49 EP MM ESTELLE 1992-07-16 18:00:00 TS 23.6000 -128.800 30 1008 hurdat_epa main 1448 1448 O_____________ hurdat_epa EP061992 23.6000 -128.800 TD 30 1008 -1 7 269
1992191N12252 1992 49 EP MM ESTELLE 1992-07-16 21:00:00 TS 23.5573 -129.178 main 1470 1470 P_____________ EP061992 23.5573 -129.178 TD 27 1008 -1 7 262
1992191N12252 1992 49 EP MM ESTELLE 1992-07-17 00:00:00 TS 23.5000 -129.600 25 1009 hurdat_epa main 1502 1502 O_____________ hurdat_epa EP061992 23.5000 -129.600 TD 25 1009 -1 8 265
1992191N12252 1992 49 EP MM ESTELLE 1992-07-17 03:00:00 TS 23.4854 -130.082 main 1531 1531 P_____________ EP061992 23.4854 -130.082 TD 25 1009 -1 9 270
1992191N12252 1992 49 EP MM ESTELLE 1992-07-17 06:00:00 TS 23.5000 -130.600 25 1009 hurdat_epa main 1561 O_____________ hurdat_epa EP061992 23.5000 -130.600 TD 25 1009 -1 10 272

IBTrACS Databaseについて

本データベースは、米国NOAAが公開する1842年以降の世界の熱帯低気圧のベストトラックデータアーカイブInternational Best Track Archive for Climate Stewardship (IBTrACS)を、ウェブで閲覧しやすい形式に変換したものです。

最終更新日:2021-11-26